Time;durP1;ratioP1;P1;durP2;ratioP2;P2;SDS_P1;SDS_P2;PMS_P1;PMS_P2;Temp;Humidity;BMP_temperature;BMP_pressure;BME280_temperature;BME280_humidity;BME280_pressure;Samples;Min_cycle;Max_cycle;Signal;HPM_P1;HPM_P2
2021/05/26 00:01:07;;;;;;;4.93;3.13;;;;;;;;;;769397;181;915554;-69
2021/05/26 00:03:33;;;;;;;8.73;3.60;;;;;;;;;;778455;180;919371;-69
2021/05/26 00:05:59;;;;;;;4.22;2.70;;;;;;;;;;773387;180;919645;-69
2021/05/26 00:08:28;;;;;;;4.60;3.23;;;;;;;;;;767104;181;918779;-69
2021/05/26 00:10:53;;;;;;;5.53;3.37;;;;;;;;;;770587;181;937338;-69
2021/05/26 00:13:19;;;;;;;4.13;2.77;;;;;;;;;;763793;181;920527;-69
2021/05/26 00:15:45;;;;;;;4.97;3.20;;;;;;;;;;775183;180;909913;-69
2021/05/26 00:18:11;;;;;;;4.07;2.57;;;;;;;;;;772160;180;918262;-70
2021/05/26 00:20:37;;;;;;;6.87;3.00;;;;;;;;;;773761;180;918748;-70
2021/05/26 00:23:03;;;;;;;3.53;2.37;;;;;;;;;;772118;180;915741;-70
2021/05/26 00:25:28;;;;;;;4.27;2.80;;;;;;;;;;770424;180;918646;-71
2021/05/26 00:27:58;;;;;;;3.20;2.60;;;;;;;;;;777635;180;918980;-70
2021/05/26 00:30:21;;;;;;;3.50;2.90;;;;;;;;;;762927;181;919008;-70
2021/05/26 00:32:46;;;;;;;2.57;2.00;;;;;;;;;;773366;180;919637;-71
2021/05/26 00:35:13;;;;;;;4.00;2.23;;;;;;;;;;777644;180;918823;-70
2021/05/26 00:37:38;;;;;;;9.05;2.78;;;;;;;;;;773543;178;918916;-69
2021/05/26 00:40:05;;;;;;;3.40;2.17;;;;;;;;;;773077;180;918716;-70
2021/05/26 00:42:31;;;;;;;6.75;2.45;;;;;;;;;;774985;180;918872;-68
2021/05/26 00:44:57;;;;;;;3.13;2.20;;;;;;;;;;771012;180;919360;-71
2021/05/26 00:47:29;;;;;;;3.10;2.10;;;;;;;;;;773722;179;918932;-69
2021/05/26 00:49:54;;;;;;;7.50;2.60;;;;;;;;;;770908;178;918607;-71
2021/05/26 00:52:20;;;;;;;4.43;2.27;;;;;;;;;;782907;177;922309;-70
2021/05/26 00:54:46;;;;;;;3.13;2.30;;;;;;;;;;779554;177;920738;-70
2021/05/26 00:57:12;;;;;;;4.80;2.43;;;;;;;;;;776976;177;919475;-71
2021/05/26 00:59:38;;;;;;;3.97;2.10;;;;;;;;;;780164;180;919164;-72
2021/05/26 01:02:04;;;;;;;4.47;2.55;;;;;;;;;;774362;177;1023743;-72
2021/05/26 01:04:30;;;;;;;3.20;2.07;;;;;;;;;;776453;177;1016760;-75
2021/05/26 01:06:55;;;;;;;3.07;2.20;;;;;;;;;;775050;180;1010296;-73
2021/05/26 01:09:21;;;;;;;6.20;2.80;;;;;;;;;;779977;177;702968;-75
2021/05/26 01:11:47;;;;;;;3.83;2.40;;;;;;;;;;778310;177;914285;-74
2021/05/26 01:14:13;;;;;;;5.20;2.20;;;;;;;;;;774503;178;992500;-77
2021/05/26 01:16:39;;;;;;;4.50;2.80;;;;;;;;;;769378;180;906965;-75
2021/05/26 01:19:05;;;;;;;4.77;3.03;;;;;;;;;;778536;178;717688;-76
2021/05/26 01:21:30;;;;;;;2.90;2.03;;;;;;;;;;771333;178;912489;-74
2021/05/26 01:23:56;;;;;;;3.05;2.10;;;;;;;;;;777782;180;917903;-75
2021/05/26 01:26:22;;;;;;;4.80;2.77;;;;;;;;;;775611;178;814335;-75
2021/05/26 01:28:48;;;;;;;3.30;2.23;;;;;;;;;;775089;178;918497;-75
2021/05/26 01:31:14;;;;;;;4.47;2.10;;;;;;;;;;774422;178;1017742;-76
2021/05/26 01:33:40;;;;;;;7.37;2.10;;;;;;;;;;784236;177;773599;-75
2021/05/26 01:36:05;;;;;;;4.27;2.10;;;;;;;;;;776627;177;915957;-76
2021/05/26 01:38:31;;;;;;;9.05;2.85;;;;;;;;;;774429;180;916263;-75
2021/05/26 01:40:57;;;;;;;5.80;2.77;;;;;;;;;;777227;180;918281;-75
2021/05/26 01:43:23;;;;;;;5.50;2.53;;;;;;;;;;774750;177;918255;-75
2021/05/26 01:45:49;;;;;;;5.27;3.03;;;;;;;;;;778677;178;623766;-76
2021/05/26 01:48:15;;;;;;;4.20;2.80;;;;;;;;;;778753;177;712582;-75
2021/05/26 01:50:41;;;;;;;7.03;2.70;;;;;;;;;;764874;178;918953;-75
2021/05/26 01:53:06;;;;;;;3.67;3.00;;;;;;;;;;773627;180;918754;-77
2021/05/26 01:55:32;;;;;;;3.73;2.80;;;;;;;;;;778456;180;853286;-76
2021/05/26 01:57:58;;;;;;;6.63;2.93;;;;;;;;;;773363;178;916552;-76
2021/05/26 02:00:24;;;;;;;5.47;2.47;;;;;;;;;;772642;178;918037;-77
2021/05/26 02:02:50;;;;;;;5.03;3.20;;;;;;;;;;772191;178;918354;-76
2021/05/26 02:05:16;;;;;;;5.17;3.60;;;;;;;;;;779581;179;1010032;-76
2021/05/26 02:07:41;;;;;;;7.78;4.12;;;;;;;;;;776265;178;918198;-77
2021/05/26 02:10:08;;;;;;;6.83;4.10;;;;;;;;;;771637;180;1006122;-77
2021/05/26 02:12:34;;;;;;;6.70;3.27;;;;;;;;;;782304;177;914043;-77
2021/05/26 02:14:59;;;;;;;7.20;4.23;;;;;;;;;;774210;178;1018342;-77
2021/05/26 02:17:25;;;;;;;7.70;4.05;;;;;;;;;;773790;178;1067498;-78
2021/05/26 02:19:51;;;;;;;10.73;5.00;;;;;;;;;;779306;177;915381;-77
2021/05/26 02:22:17;;;;;;;9.53;5.20;;;;;;;;;;776342;178;780335;-77
2021/05/26 02:24:43;;;;;;;8.30;5.47;;;;;;;;;;775314;177;815803;-78
2021/05/26 02:27:09;;;;;;;6.25;3.28;;;;;;;;;;780382;178;905089;-76
2021/05/26 02:29:35;;;;;;;6.37;3.57;;;;;;;;;;772769;180;917815;-77
2021/05/26 02:32:01;;;;;;;8.50;3.43;;;;;;;;;;762287;181;926207;-78
2021/05/26 02:34:27;;;;;;;7.57;3.30;;;;;;;;;;776000;181;929444;-78
2021/05/26 02:36:53;;;;;;;6.17;3.60;;;;;;;;;;781252;178;910593;-77
2021/05/26 02:39:19;;;;;;;5.83;2.90;;;;;;;;;;777346;178;803083;-77
2021/05/26 02:41:44;;;;;;;4.60;2.70;;;;;;;;;;767861;180;914405;-78
2021/05/26 02:44:10;;;;;;;7.97;2.90;;;;;;;;;;780718;180;711832;-78
2021/05/26 02:46:36;;;;;;;5.30;3.10;;;;;;;;;;774761;177;918629;-77
2021/05/26 02:49:04;;;;;;;4.03;2.87;;;;;;;;;;774056;179;1020323;-78
2021/05/26 02:51:28;;;;;;;6.30;3.10;;;;;;;;;;775860;180;893895;-78
2021/05/26 02:53:54;;;;;;;5.67;3.27;;;;;;;;;;779937;177;919752;-78
2021/05/26 02:56:20;;;;;;;4.10;2.63;;;;;;;;;;776093;177;913561;-78
2021/05/26 02:58:45;;;;;;;4.97;2.77;;;;;;;;;;775693;178;815121;-75
2021/05/26 03:01:11;;;;;;;7.07;2.97;;;;;;;;;;767624;180;901485;-78
2021/05/26 03:03:37;;;;;;;7.40;3.13;;;;;;;;;;760312;177;932391;-78
2021/05/26 03:06:03;;;;;;;4.07;2.90;;;;;;;;;;775192;178;917540;-77
2021/05/26 03:08:29;;;;;;;5.30;3.08;;;;;;;;;;779662;180;801104;-78
2021/05/26 03:10:57;;;;;;;9.43;2.90;;;;;;;;;;775022;177;983994;-78
2021/05/26 03:13:21;;;;;;;4.20;3.00;;;;;;;;;;772923;177;918312;-78
2021/05/26 03:15:47;;;;;;;6.50;2.57;;;;;;;;;;781993;177;819393;-78
2021/05/26 03:18:13;;;;;;;4.10;2.83;;;;;;;;;;778620;176;916080;-78
2021/05/26 03:20:39;;;;;;;3.87;2.90;;;;;;;;;;759231;181;1018292;-78
2021/05/26 03:23:05;;;;;;;4.80;3.42;;;;;;;;;;776705;180;822500;-78
2021/05/26 03:25:30;;;;;;;5.00;2.90;;;;;;;;;;773315;178;1007991;-78
2021/05/26 03:27:56;;;;;;;4.37;3.25;;;;;;;;;;762659;177;914904;-77
2021/05/26 03:30:23;;;;;;;3.53;2.73;;;;;;;;;;769337;177;2163713;-77
2021/05/26 03:32:48;;;;;;;3.10;2.47;;;;;;;;;;783356;178;712684;-77
2021/05/26 03:35:14;;;;;;;4.33;3.20;;;;;;;;;;775129;178;808037;-77
2021/05/26 03:37:40;;;;;;;10.80;3.70;;;;;;;;;;773430;178;1026286;-76
2021/05/26 03:40:06;;;;;;;5.30;3.40;;;;;;;;;;774684;180;817674;-75
2021/05/26 03:42:32;;;;;;;4.87;3.40;;;;;;;;;;772687;178;1026057;-77
2021/05/26 03:44:58;;;;;;;12.55;3.78;;;;;;;;;;771758;178;920051;-77
2021/05/26 03:47:24;;;;;;;5.30;3.50;;;;;;;;;;779326;178;820589;-78
2021/05/26 03:49:49;;;;;;;5.80;3.73;;;;;;;;;;773783;181;884098;-79
2021/05/26 03:52:15;;;;;;;6.33;3.80;;;;;;;;;;772973;180;915011;-78
2021/05/26 03:54:41;;;;;;;6.37;3.87;;;;;;;;;;773339;177;891861;-78
2021/05/26 03:57:07;;;;;;;11.77;6.10;;;;;;;;;;773859;181;919720;-76
2021/05/26 03:59:33;;;;;;;10.63;5.83;;;;;;;;;;766749;179;1021073;-76
2021/05/26 04:01:59;;;;;;;13.57;6.27;;;;;;;;;;774481;180;918190;-76
2021/05/26 04:04:24;;;;;;;16.77;11.97;;;;;;;;;;776031;177;636186;-75
2021/05/26 04:06:50;;;;;;;49.40;13.23;;;;;;;;;;768074;181;918754;-75
2021/05/26 04:09:19;;;;;;;18.83;13.00;;;;;;;;;;774476;181;915611;-75
2021/05/26 04:11:42;;;;;;;26.92;14.80;;;;;;;;;;778533;178;919480;-73
2021/05/26 04:14:08;;;;;;;24.07;14.17;;;;;;;;;;773666;178;917262;-73
2021/05/26 04:16:34;;;;;;;19.45;11.05;;;;;;;;;;770831;180;924139;-71
2021/05/26 04:19:00;;;;;;;14.30;8.90;;;;;;;;;;779250;181;918730;-71
2021/05/26 04:21:25;;;;;;;18.33;12.20;;;;;;;;;;772348;180;919786;-71
2021/05/26 04:23:51;;;;;;;9.90;8.13;;;;;;;;;;771755;179;920569;-70
2021/05/26 04:26:17;;;;;;;13.00;7.80;;;;;;;;;;773688;180;919886;-70
2021/05/26 04:28:45;;;;;;;13.63;6.97;;;;;;;;;;780855;180;917049;-70
2021/05/26 04:31:09;;;;;;;17.77;8.27;;;;;;;;;;775383;180;917350;-71
2021/05/26 04:33:35;;;;;;;8.40;6.90;;;;;;;;;;776760;178;986295;-70
2021/05/26 04:36:00;;;;;;;10.60;6.30;;;;;;;;;;779569;177;917619;-70
2021/05/26 04:38:26;;;;;;;12.57;6.35;;;;;;;;;;775647;178;917387;-69
2021/05/26 04:40:52;;;;;;;10.73;6.57;;;;;;;;;;776147;180;921057;-69
2021/05/26 04:43:19;;;;;;;17.33;7.57;;;;;;;;;;780162;180;898116;-69
2021/05/26 04:45:44;;;;;;;11.27;7.03;;;;;;;;;;777954;178;620856;-69
2021/05/26 04:48:10;;;;;;;7.83;5.37;;;;;;;;;;777603;180;916865;-69
2021/05/26 04:50:35;;;;;;;10.73;6.13;;;;;;;;;;773897;178;920631;-68
2021/05/26 04:53:01;;;;;;;8.47;5.13;;;;;;;;;;779249;179;915876;-68
2021/05/26 04:55:27;;;;;;;7.90;6.03;;;;;;;;;;775237;179;917736;-68
2021/05/26 04:57:58;;;;;;;7.47;5.47;;;;;;;;;;770247;180;919408;-68
2021/05/26 05:00:24;;;;;;;13.83;6.03;;;;;;;;;;780041;180;920668;-68
2021/05/26 05:02:50;;;;;;;6.60;5.60;;;;;;;;;;772258;177;915116;-68
2021/05/26 05:05:16;;;;;;;10.07;5.07;;;;;;;;;;771886;179;915504;-68
2021/05/26 05:07:42;;;;;;;8.90;5.13;;;;;;;;;;779348;180;916829;-69
2021/05/26 05:10:08;;;;;;;9.40;5.55;;;;;;;;;;775412;179;914286;-69
2021/05/26 05:12:34;;;;;;;9.57;5.10;;;;;;;;;;777524;177;943975;-67
2021/05/26 05:15:00;;;;;;;7.93;5.47;;;;;;;;;;770262;179;1414398;-68
2021/05/26 05:17:26;;;;;;;8.30;4.68;;;;;;;;;;782773;177;914929;-69
2021/05/26 05:19:51;;;;;;;4.90;3.90;;;;;;;;;;774177;178;922368;-70
2021/05/26 05:22:17;;;;;;;9.20;5.12;;;;;;;;;;776070;178;920202;-68
2021/05/26 05:24:43;;;;;;;6.50;4.43;;;;;;;;;;780717;180;814799;-68
2021/05/26 05:27:09;;;;;;;5.63;3.70;;;;;;;;;;769531;181;1123681;-68
2021/05/26 05:29:35;;;;;;;5.07;3.17;;;;;;;;;;769362;180;919458;-69
2021/05/26 05:32:01;;;;;;;5.53;4.40;;;;;;;;;;776455;181;928910;-69
2021/05/26 05:34:26;;;;;;;7.13;4.13;;;;;;;;;;772935;180;919637;-68
2021/05/26 05:36:52;;;;;;;9.13;3.40;;;;;;;;;;771774;178;932015;-69
2021/05/26 05:39:18;;;;;;;6.43;3.87;;;;;;;;;;773359;179;916089;-69
2021/05/26 05:41:45;;;;;;;6.90;3.97;;;;;;;;;;776916;178;916176;-68
2021/05/26 05:44:10;;;;;;;3.60;2.73;;;;;;;;;;771838;178;915910;-68
2021/05/26 05:46:36;;;;;;;5.30;2.93;;;;;;;;;;772127;178;916320;-68
2021/05/26 05:49:01;;;;;;;6.67;3.13;;;;;;;;;;779940;180;914943;-69
2021/05/26 05:51:27;;;;;;;3.77;2.87;;;;;;;;;;763679;180;2522594;-69
2021/05/26 05:53:53;;;;;;;10.67;4.47;;;;;;;;;;772621;180;919927;-70
2021/05/26 05:56:19;;;;;;;3.90;2.90;;;;;;;;;;777886;180;891158;-69
2021/05/26 05:58:45;;;;;;;4.43;2.70;;;;;;;;;;773867;181;920266;-70
2021/05/26 06:01:11;;;;;;;8.20;2.60;;;;;;;;;;775039;177;918654;-69
2021/05/26 06:03:36;;;;;;;3.60;2.30;;;;;;;;;;776055;180;919413;-70
2021/05/26 06:06:02;;;;;;;7.22;2.33;;;;;;;;;;777151;180;919380;-70
2021/05/26 06:08:28;;;;;;;3.70;2.20;;;;;;;;;;763049;177;919059;-70
2021/05/26 06:10:54;;;;;;;13.03;2.97;;;;;;;;;;769430;180;919276;-68
2021/05/26 06:13:20;;;;;;;7.53;1.93;;;;;;;;;;780569;180;918562;-70
2021/05/26 06:15:46;;;;;;;8.37;2.23;;;;;;;;;;776242;179;917807;-70
2021/05/26 06:18:12;;;;;;;3.93;1.90;;;;;;;;;;774278;181;919505;-70
2021/05/26 06:20:37;;;;;;;8.30;3.50;;;;;;;;;;776255;177;916119;-70
2021/05/26 06:23:03;;;;;;;8.90;2.30;;;;;;;;;;775218;179;920219;-70
2021/05/26 06:25:29;;;;;;;5.20;2.53;;;;;;;;;;772350;180;918635;-70
2021/05/26 06:27:55;;;;;;;7.60;2.53;;;;;;;;;;777808;179;914763;-70
2021/05/26 06:30:21;;;;;;;2.93;1.80;;;;;;;;;;771147;180;1574698;-71
2021/05/26 06:32:47;;;;;;;5.30;1.40;;;;;;;;;;774909;178;919695;-70
2021/05/26 06:35:13;;;;;;;3.93;1.57;;;;;;;;;;773655;180;616985;-71
2021/05/26 06:37:39;;;;;;;4.70;1.80;;;;;;;;;;767147;180;616740;-70
2021/05/26 06:40:05;;;;;;;4.00;1.50;;;;;;;;;;774868;180;919150;-70
2021/05/26 06:42:31;;;;;;;7.53;1.83;;;;;;;;;;773834;180;919274;-70
2021/05/26 06:44:57;;;;;;;2.87;1.47;;;;;;;;;;778808;180;919100;-70
2021/05/26 06:47:23;;;;;;;3.60;1.20;;;;;;;;;;772074;180;919188;-70
2021/05/26 06:49:49;;;;;;;2.60;1.37;;;;;;;;;;778518;180;625657;-71
2021/05/26 06:52:14;;;;;;;4.53;1.87;;;;;;;;;;781501;179;919665;-71
2021/05/26 06:54:40;;;;;;;2.87;1.43;;;;;;;;;;778411;177;945521;-70
2021/05/26 06:57:06;;;;;;;4.50;1.77;;;;;;;;;;775946;177;915247;-70
2021/05/26 06:59:32;;;;;;;3.70;1.50;;;;;;;;;;778858;178;915091;-71
2021/05/26 07:01:58;;;;;;;3.97;1.75;;;;;;;;;;777504;178;914408;-71
2021/05/26 07:04:24;;;;;;;6.70;1.63;;;;;;;;;;778777;177;915609;-71
2021/05/26 07:06:50;;;;;;;3.40;1.17;;;;;;;;;;774230;177;951036;-70
2021/05/26 07:09:15;;;;;;;2.57;1.53;;;;;;;;;;778345;180;916718;-70
2021/05/26 07:11:42;;;;;;;5.20;1.43;;;;;;;;;;768631;181;1019343;-71
2021/05/26 07:14:07;;;;;;;3.53;1.50;;;;;;;;;;771653;180;919603;-71
2021/05/26 07:16:33;;;;;;;2.50;1.13;;;;;;;;;;771984;180;918140;-71
2021/05/26 07:18:59;;;;;;;2.40;1.33;;;;;;;;;;778212;180;919201;-70
2021/05/26 07:21:25;;;;;;;3.60;1.47;;;;;;;;;;774722;180;920254;-70
2021/05/26 07:23:51;;;;;;;3.83;2.03;;;;;;;;;;775245;180;917521;-70
2021/05/26 07:26:17;;;;;;;3.53;2.30;;;;;;;;;;768110;180;919486;-71
2021/05/26 07:28:42;;;;;;;6.50;2.63;;;;;;;;;;767241;177;915786;-71
2021/05/26 07:31:08;;;;;;;2.10;1.20;;;;;;;;;;771792;180;919565;-71
2021/05/26 07:33:34;;;;;;;5.27;1.50;;;;;;;;;;774677;180;919102;-70
2021/05/26 07:36:00;;;;;;;3.43;1.60;;;;;;;;;;762860;181;918877;-71
2021/05/26 07:38:26;;;;;;;3.20;1.30;;;;;;;;;;778112;179;919828;-72
2021/05/26 07:40:51;;;;;;;7.60;1.70;;;;;;;;;;778447;181;919628;-70
2021/05/26 07:43:19;;;;;;;9.43;1.60;;;;;;;;;;775561;178;918585;-71
2021/05/26 07:45:43;;;;;;;4.90;1.90;;;;;;;;;;774837;180;919708;-71
2021/05/26 07:48:09;;;;;;;4.70;2.27;;;;;;;;;;775037;180;905695;-71
2021/05/26 07:50:35;;;;;;;5.00;2.00;;;;;;;;;;773680;178;918285;-71
2021/05/26 07:53:01;;;;;;;13.70;2.27;;;;;;;;;;769898;180;918867;-71
2021/05/26 07:55:26;;;;;;;3.60;1.90;;;;;;;;;;778474;180;918985;-71
2021/05/26 07:57:52;;;;;;;5.27;1.93;;;;;;;;;;774725;179;917783;-71
2021/05/26 08:00:18;;;;;;;5.22;1.80;;;;;;;;;;774488;180;919649;-71
2021/05/26 08:02:44;;;;;;;5.30;2.60;;;;;;;;;;780371;176;917139;-70
2021/05/26 08:05:10;;;;;;;9.30;1.77;;;;;;;;;;782423;178;636638;-70
2021/05/26 08:07:36;;;;;;;2.90;1.70;;;;;;;;;;766273;181;919601;-71
2021/05/26 08:10:03;;;;;;;6.60;2.30;;;;;;;;;;767608;178;919854;-70
2021/05/26 08:12:28;;;;;;;5.40;1.73;;;;;;;;;;779161;180;919090;-71
2021/05/26 08:14:54;;;;;;;5.85;2.53;;;;;;;;;;776503;177;919054;-71
2021/05/26 08:17:19;;;;;;;4.07;1.80;;;;;;;;;;781530;180;632005;-71
2021/05/26 08:19:45;;;;;;;9.33;2.33;;;;;;;;;;779278;180;963389;-70
2021/05/26 08:22:11;;;;;;;3.23;1.80;;;;;;;;;;768365;177;897653;-71
2021/05/26 08:24:37;;;;;;;4.57;1.85;;;;;;;;;;772455;180;918536;-71
2021/05/26 08:27:03;;;;;;;14.77;3.80;;;;;;;;;;773941;180;920439;-70
2021/05/26 08:29:32;;;;;;;4.10;1.77;;;;;;;;;;767883;181;933023;-71
2021/05/26 08:31:58;;;;;;;3.47;1.60;;;;;;;;;;775410;180;919710;-70
2021/05/26 08:34:20;;;;;;;3.97;1.83;;;;;;;;;;773372;180;919782;-71
2021/05/26 08:36:46;;;;;;;4.30;1.63;;;;;;;;;;774068;180;919392;-71
2021/05/26 08:39:12;;;;;;;5.10;1.90;;;;;;;;;;778830;177;920581;-72
2021/05/26 08:41:38;;;;;;;4.25;2.10;;;;;;;;;;775264;180;913765;-71
2021/05/26 08:44:06;;;;;;;2.50;1.33;;;;;;;;;;774060;180;918753;-71
2021/05/26 08:46:30;;;;;;;8.73;2.07;;;;;;;;;;780005;180;616449;-71
2021/05/26 08:48:57;;;;;;;3.90;2.00;;;;;;;;;;772648;180;817949;-72
2021/05/26 08:51:22;;;;;;;3.73;1.30;;;;;;;;;;777800;180;929172;-71
2021/05/26 08:53:47;;;;;;;3.93;1.40;;;;;;;;;;770640;180;919196;-72
2021/05/26 08:56:13;;;;;;;6.23;2.43;;;;;;;;;;773238;180;1288835;-70
2021/05/26 08:58:39;;;;;;;4.27;1.57;;;;;;;;;;775990;177;1225315;-71
2021/05/26 09:01:05;;;;;;;3.53;1.50;;;;;;;;;;776491;180;912373;-71
2021/05/26 09:03:31;;;;;;;3.20;1.33;;;;;;;;;;775955;179;632113;-72
2021/05/26 09:05:56;;;;;;;3.23;1.77;;;;;;;;;;776140;180;657095;-73
2021/05/26 09:08:22;;;;;;;4.30;1.30;;;;;;;;;;778297;180;918607;-71
2021/05/26 09:10:58;;;;;;;6.43;1.80;;;;;;;;;;769973;177;920411;-71
2021/05/26 09:13:25;;;;;;;4.33;1.70;;;;;;;;;;771151;180;919257;-72
2021/05/26 09:15:51;;;;;;;2.60;1.40;;;;;;;;;;774393;179;917638;-71
2021/05/26 09:18:17;;;;;;;3.73;1.97;;;;;;;;;;771732;180;919255;-70
2021/05/26 09:20:43;;;;;;;4.90;1.73;;;;;;;;;;771566;180;919555;-72
2021/05/26 09:23:09;;;;;;;2.50;1.37;;;;;;;;;;775121;177;919511;-72
2021/05/26 09:25:37;;;;;;;5.50;1.70;;;;;;;;;;779412;180;936170;-72
2021/05/26 09:28:08;;;;;;;5.53;1.47;;;;;;;;;;771216;181;919615;-73
2021/05/26 09:30:34;;;;;;;2.93;1.57;;;;;;;;;;777568;177;914508;-72
2021/05/26 09:33:01;;;;;;;3.53;1.70;;;;;;;;;;778367;177;633277;-72
2021/05/26 09:35:27;;;;;;;3.63;1.50;;;;;;;;;;780801;177;920496;-70
2021/05/26 09:37:56;;;;;;;3.97;1.67;;;;;;;;;;774431;178;929097;-71
2021/05/26 09:40:22;;;;;;;10.20;2.10;;;;;;;;;;773106;180;932686;-73
2021/05/26 09:42:49;;;;;;;7.87;1.70;;;;;;;;;;781726;177;918807;-72
2021/05/26 09:45:16;;;;;;;2.80;1.70;;;;;;;;;;773324;180;919173;-71
2021/05/26 09:47:44;;;;;;;4.20;1.60;;;;;;;;;;774389;180;919435;-71
2021/05/26 09:50:28;;;;;;;5.73;1.93;;;;;;;;;;775065;180;919503;-71
2021/05/26 09:52:57;;;;;;;3.77;1.90;;;;;;;;;;772719;180;919467;-72
2021/05/26 09:55:23;;;;;;;6.90;2.23;;;;;;;;;;775153;180;918761;-71
2021/05/26 09:57:49;;;;;;;2.77;1.43;;;;;;;;;;776608;178;919171;-72
2021/05/26 10:00:15;;;;;;;8.20;1.77;;;;;;;;;;773444;180;919768;-72
2021/05/26 10:02:41;;;;;;;5.10;1.70;;;;;;;;;;775001;178;921288;-72
2021/05/26 10:05:07;;;;;;;4.83;1.80;;;;;;;;;;763838;180;919218;-74
2021/05/26 10:07:33;;;;;;;4.37;1.70;;;;;;;;;;765374;181;919226;-72
2021/05/26 10:09:59;;;;;;;3.27;1.50;;;;;;;;;;770257;180;919513;-73
2021/05/26 10:12:25;;;;;;;3.27;1.53;;;;;;;;;;778621;180;919216;-72
2021/05/26 10:14:51;;;;;;;2.77;1.23;;;;;;;;;;767400;181;919507;-71
2021/05/26 10:17:20;;;;;;;35.33;1.93;;;;;;;;;;773099;180;941936;-72
2021/05/26 10:19:43;;;;;;;2.60;1.30;;;;;;;;;;778123;180;918575;-73
2021/05/26 10:22:09;;;;;;;6.43;1.90;;;;;;;;;;771241;178;919342;-72
2021/05/26 10:24:35;;;;;;;3.17;1.30;;;;;;;;;;773902;179;919308;-71
2021/05/26 10:27:02;;;;;;;3.47;2.03;;;;;;;;;;782770;179;919108;-71
2021/05/26 10:29:42;;;;;;;2.57;1.20;;;;;;;;;;778291;177;918837;-71
2021/05/26 10:32:32;;;;;;;2.73;1.27;;;;;;;;;;776863;179;919012;-73
2021/05/26 10:35:04;;;;;;;4.10;1.20;;;;;;;;;;776513;180;919419;-72
2021/05/26 10:37:28;;;;;;;5.40;1.73;;;;;;;;;;781027;180;623247;-72
2021/05/26 10:39:54;;;;;;;5.00;1.50;;;;;;;;;;782825;177;634216;-72
2021/05/26 10:42:27;;;;;;;2.30;1.30;;;;;;;;;;779358;178;613279;-73
2021/05/26 10:44:54;;;;;;;3.97;1.73;;;;;;;;;;778956;180;624544;-70
2021/05/26 10:47:26;;;;;;;3.93;1.20;;;;;;;;;;773714;178;918914;-72
2021/05/26 10:49:52;;;;;;;7.90;1.97;;;;;;;;;;771714;179;918989;-73
2021/05/26 10:52:18;;;;;;;3.60;1.30;;;;;;;;;;773245;178;920024;-73
2021/05/26 10:54:59;;;;;;;7.17;1.73;;;;;;;;;;775912;181;919050;-72
2021/05/26 10:57:24;;;;;;;4.10;1.10;;;;;;;;;;775243;178;919977;-71
2021/05/26 10:59:56;;;;;;;4.03;1.80;;;;;;;;;;771471;180;928860;-73
2021/05/26 11:02:23;;;;;;;6.80;1.30;;;;;;;;;;779252;180;636296;-75
2021/05/26 11:04:50;;;;;;;4.10;1.73;;;;;;;;;;780476;180;619765;-70
2021/05/26 11:07:16;;;;;;;7.80;1.73;;;;;;;;;;776001;180;623725;-72
2021/05/26 11:09:47;;;;;;;2.97;1.20;;;;;;;;;;777684;179;622496;-73
2021/05/26 11:12:13;;;;;;;3.00;1.50;;;;;;;;;;769598;181;884262;-73
2021/05/26 11:14:39;;;;;;;2.70;1.40;;;;;;;;;;773461;181;919414;-74
2021/05/26 11:17:21;;;;;;;5.10;1.17;;;;;;;;;;774485;178;1005028;-74
2021/05/26 11:19:46;;;;;;;4.60;1.50;;;;;;;;;;765221;180;920392;-71
2021/05/26 11:22:14;;;;;;;5.20;1.45;;;;;;;;;;772447;178;919413;-73
2021/05/26 11:24:37;;;;;;;3.63;1.40;;;;;;;;;;776834;180;919184;-71
2021/05/26 11:27:03;;;;;;;4.60;1.60;;;;;;;;;;775242;180;918110;-73
2021/05/26 11:29:29;;;;;;;6.73;1.70;;;;;;;;;;773218;179;918972;-71
2021/05/26 11:32:01;;;;;;;5.10;1.53;;;;;;;;;;774834;178;919006;-73
2021/05/26 11:34:26;;;;;;;2.70;1.33;;;;;;;;;;774891;180;919265;-72
2021/05/26 11:36:52;;;;;;;3.57;1.60;;;;;;;;;;773271;179;919513;-72
2021/05/26 11:39:18;;;;;;;2.60;1.27;;;;;;;;;;774020;180;921756;-71
2021/05/26 11:41:44;;;;;;;3.17;1.60;;;;;;;;;;775500;180;917122;-73
2021/05/26 11:44:10;;;;;;;4.47;1.67;;;;;;;;;;777615;177;919136;-73
2021/05/26 11:46:36;;;;;;;5.90;1.50;;;;;;;;;;772757;178;919856;-73
2021/05/26 11:49:08;;;;;;;4.07;1.60;;;;;;;;;;770758;180;919390;-72
2021/05/26 11:51:37;;;;;;;3.37;1.80;;;;;;;;;;761158;181;919202;-71
2021/05/26 11:53:59;;;;;;;3.80;1.47;;;;;;;;;;761638;181;1115211;-74
2021/05/26 11:56:25;;;;;;;2.77;1.40;;;;;;;;;;771635;181;919277;-71
2021/05/26 11:58:51;;;;;;;7.23;1.50;;;;;;;;;;777844;180;896088;-72
2021/05/26 12:01:17;;;;;;;2.70;1.40;;;;;;;;;;772416;180;919043;-72
2021/05/26 12:03:43;;;;;;;4.00;1.87;;;;;;;;;;774853;180;907799;-70
2021/05/26 12:06:09;;;;;;;8.40;2.17;;;;;;;;;;778939;180;946721;-73
2021/05/26 12:08:37;;;;;;;4.67;1.67;;;;;;;;;;773136;180;917792;-73
2021/05/26 12:11:03;;;;;;;3.07;1.47;;;;;;;;;;771724;179;918677;-72
2021/05/26 12:13:29;;;;;;;3.20;1.73;;;;;;;;;;775644;178;919403;-70
2021/05/26 12:15:58;;;;;;;6.60;1.80;;;;;;;;;;770889;181;824119;-73
2021/05/26 12:18:21;;;;;;;2.97;1.47;;;;;;;;;;773704;178;917552;-72
2021/05/26 12:20:46;;;;;;;3.77;1.70;;;;;;;;;;771797;180;917851;-74
2021/05/26 12:23:13;;;;;;;8.33;1.80;;;;;;;;;;778832;180;615510;-75
2021/05/26 12:25:39;;;;;;;3.97;1.20;;;;;;;;;;770947;181;631856;-72
2021/05/26 12:28:10;;;;;;;3.27;2.13;;;;;;;;;;777603;179;617156;-73
2021/05/26 12:30:38;;;;;;;8.90;2.23;;;;;;;;;;773040;177;664419;-70
2021/05/26 12:33:10;;;;;;;2.40;1.30;;;;;;;;;;768139;180;624456;-72
2021/05/26 12:35:36;;;;;;;4.27;1.57;;;;;;;;;;770030;180;631168;-71
2021/05/26 12:38:02;;;;;;;4.10;1.23;;;;;;;;;;772246;180;629602;-73
2021/05/26 12:40:29;;;;;;;3.67;1.50;;;;;;;;;;778031;180;614210;-72
2021/05/26 12:42:54;;;;;;;4.60;1.57;;;;;;;;;;776175;180;613831;-70
2021/05/26 12:45:24;;;;;;;4.40;1.60;;;;;;;;;;773628;178;617149;-71
2021/05/26 12:47:49;;;;;;;4.67;1.70;;;;;;;;;;779488;176;618024;-69
2021/05/26 12:50:15;;;;;;;4.63;1.73;;;;;;;;;;786454;177;642413;-72
2021/05/26 12:52:41;;;;;;;4.20;1.57;;;;;;;;;;777165;180;640264;-72
2021/05/26 12:55:07;;;;;;;2.60;1.40;;;;;;;;;;779924;179;625990;-71
2021/05/26 12:57:33;;;;;;;5.33;2.10;;;;;;;;;;777993;179;622471;-72
2021/05/26 12:59:59;;;;;;;3.77;1.40;;;;;;;;;;776558;180;629255;-70
2021/05/26 13:02:29;;;;;;;2.20;1.10;;;;;;;;;;779773;177;642732;-72
2021/05/26 13:04:55;;;;;;;4.53;1.60;;;;;;;;;;776724;180;620576;-71
2021/05/26 13:07:28;;;;;;;9.97;2.23;;;;;;;;;;782131;177;617746;-73
2021/05/26 13:09:54;;;;;;;9.50;1.37;;;;;;;;;;768170;181;1274931;-72
2021/05/26 13:12:22;;;;;;;3.07;1.50;;;;;;;;;;770952;178;621182;-71
2021/05/26 13:14:48;;;;;;;5.20;1.50;;;;;;;;;;777551;180;616122;-72
2021/05/26 13:17:13;;;;;;;3.50;1.47;;;;;;;;;;776740;181;617479;-71
2021/05/26 13:19:39;;;;;;;2.80;1.30;;;;;;;;;;770770;178;656661;-73
2021/05/26 13:22:05;;;;;;;3.70;1.30;;;;;;;;;;776021;180;639623;-73
2021/05/26 13:24:31;;;;;;;5.87;1.57;;;;;;;;;;782617;179;623799;-70
2021/05/26 13:26:57;;;;;;;9.90;1.50;;;;;;;;;;780132;178;655389;-72
2021/05/26 13:29:23;;;;;;;2.37;1.40;;;;;;;;;;777847;180;619641;-71
2021/05/26 13:31:48;;;;;;;4.07;1.40;;;;;;;;;;781652;181;622333;-71
2021/05/26 13:34:14;;;;;;;3.77;1.97;;;;;;;;;;776888;180;635157;-70
2021/05/26 13:36:40;;;;;;;6.07;2.15;;;;;;;;;;779849;180;630134;-71
2021/05/26 13:39:06;;;;;;;2.53;1.20;;;;;;;;;;780338;181;628745;-72
2021/05/26 13:41:32;;;;;;;1.70;1.00;;;;;;;;;;778989;180;626202;-73
2021/05/26 13:43:59;;;;;;;4.83;1.97;;;;;;;;;;778829;178;629256;-72
2021/05/26 13:46:27;;;;;;;2.70;1.30;;;;;;;;;;776341;178;626588;-72
2021/05/26 13:48:51;;;;;;;4.17;1.53;;;;;;;;;;783463;180;645886;-70
2021/05/26 13:51:17;;;;;;;2.30;1.20;;;;;;;;;;779215;180;625650;-70
2021/05/26 13:53:43;;;;;;;4.30;1.20;;;;;;;;;;777714;180;703274;-71
2021/05/26 13:56:10;;;;;;;4.40;1.53;;;;;;;;;;781393;180;631592;-71
2021/05/26 13:58:36;;;;;;;3.77;1.47;;;;;;;;;;778609;177;629291;-72
2021/05/26 14:01:02;;;;;;;3.40;1.20;;;;;;;;;;776662;179;640871;-70
2021/05/26 14:03:27;;;;;;;7.43;1.30;;;;;;;;;;782249;177;635222;-71
2021/05/26 14:05:53;;;;;;;3.63;1.77;;;;;;;;;;781962;179;638242;-73
2021/05/26 14:08:19;;;;;;;2.00;1.10;;;;;;;;;;775236;181;697482;-72
2021/05/26 14:10:45;;;;;;;2.60;1.10;;;;;;;;;;773196;180;918604;-71
2021/05/26 14:13:13;;;;;;;5.73;1.20;;;;;;;;;;783761;180;619041;-72
2021/05/26 14:15:37;;;;;;;4.60;1.60;;;;;;;;;;779309;177;618286;-71
2021/05/26 14:18:04;;;;;;;2.50;1.63;;;;;;;;;;778424;177;623178;-70
2021/05/26 14:20:29;;;;;;;3.83;1.57;;;;;;;;;;783708;178;621505;-72
2021/05/26 14:22:55;;;;;;;4.00;1.50;;;;;;;;;;764224;180;763807;-73